METAR Data
IDs: Format: Raw Decoded Include TAF

Data at: 1329 UTC 20 Jul 2019

METAR for:KICL (Clarinda/Schenck Fld, IA, US)
Text:KICL 201315Z AUTO 20010G17KT 10SM CLR 27/24 A2981 RMK AO2
Temperature: 27.0°C ( 81°F)
Dewpoint: 24.0°C ( 75°F) [RH = 84%]
Pressure (altimeter):29.81 inches Hg (1009.6 mb)
Winds:from the SSW (200 degrees) at 12 MPH (10 knots; 5.1 m/s) gusting to 20 MPH (17 knots; 8.7 m/s)
Visibility:10 or more sm (16+ km)
Ceiling:at least 12,000 feet AGL
Clouds:sky clear below 12,000 feet AGL
QC Flag:automated observation with no human augmentation